Cape Hatteras, North Carolina
Current Conditions -  °F | °C
As of 8:51 AM on Friday 31 Oct 2014 (Local Time) from KHSE Reporting Station
Light Rain Light Rain  
Wind Chill: 15°   Ceiling: 3600
Heat Index: 15°   Visibility: 8mi
Dew Point: 11°   Wind: 10mph
Humidity: 75%   Direction: 30°NNE
Pressure: 29.87"   Gusts: 22mph
Location:  35.23°N, 75.62°W
Report Text: KHSE 311251Z AUTO 03009G19KT 8SM -RA BKN036 OVC055 15/11 A2987 RMK AO2 RAB42 SLP113 P0000 T01500106 TSNO
Loading
Personal Weather Stations






























Interactive Weather Map
Tropical Storm Tracking
New forecast layout! Learn more

10-Day Weather Forecast

Advertisements
Track Severe Weather on mobile